AKC weather

Akron Fulton International Airport
Akron, Ohio, United States

Public forecast

Using degrees Fahrenheit for public forecast. Weather courtesy of forecast.io.

METAR (pilot weather report)

Retrieved 2019/05/26 14:54 UTC (8 minutes ago):

KAKR 261454Z AUTO VRB03KT 10SM FEW012 23/19 A3005 RMK AO2 RAEMM SLP168 6//// T02280189 50004 $

TAF (pilot weather forecast)

Closest forecast is Akron Canton Regional Airport, 7.4 nm (13.7 km) S. Retrieved 2019/05/26 12:42 UTC (2 hours ago):

TAF KCAK 261139Z 2612/2712 25005KT P6SM VCTS OVC050CB FM261300 26015G25KT 3SM -TSRA OVC030CB FM261500 28008KT P6SM VCSH OVC040 FM262100 29006KT P6SM VCTS BKN050CB FM270400 03004KT P6SM BKN030